
Distance (Route):
Temperature : -35.1°C
Humidity : 17.4%
Pressure : 0hPa| Receiver | Frames | First received | Last received |
|---|---|---|---|
| DJALKS | 35 | 2026-09-02 11:16:54 | 2026-09-02 11:39:41 |
| Receiver | Date | Latitude | Longitude | Direction | Speed | Altitude | Climb | Temperature | Humidity | Pressure | Voltage | Killtimer | Uptime | BKT | XDATA |
|---|---|---|---|---|---|---|---|---|---|---|---|---|---|---|---|
| DJALKS | 2026-09-02 11:39:41 | 42.68316 | -83.03334 | 92° | 84km/h | 9891m | 5.4m/s | -35.1°C | 17.4% | 0hPa | 0V | 00:00:00 | 00:00:00 | 00:00:00 | |
| DJALKS | 2026-09-02 11:39:13 | 42.68333 | -83.04136 | 93° | 82km/h | 9749m | 4.8m/s | -33.8°C | 16.2% | 0hPa | 0V | 00:00:00 | 00:00:00 | 00:00:00 | |
| DJALKS | 2026-09-02 11:36:24 | 42.68359 | -83.08933 | 94° | 86km/h | 8903m | 5.8m/s | -27.3°C | 7.4% | 0hPa | 0V | 00:00:00 | 00:00:00 | 00:00:00 | |
| DJALKS | 2026-09-02 11:35:45 | 42.68378 | -83.10007 | 88° | 77km/h | 8722m | 4.2m/s | -26.4°C | 9.8% | 0hPa | 0V | 00:00:00 | 00:00:00 | 00:00:00 | |
| DJALKS | 2026-09-02 11:31:43 | 42.68357 | -83.15571 | 89° | 77km/h | 7711m | 3.4m/s | -19.8°C | 17.8% | 0hPa | 0V | 00:00:00 | 00:00:00 | 00:00:00 | |
| DJALKS | 2026-09-02 11:31:21 | 42.68357 | -83.16104 | 92° | 78km/h | 7636m | 3.7m/s | -19.9°C | 28.4% | 0hPa | 0V | 00:00:00 | 00:00:00 | 00:00:00 | |
| DJALKS | 2026-09-02 11:31:00 | 42.68369 | -83.16673 | 95° | 77km/h | 7552m | 3.5m/s | -19.3°C | 27.7% | 0hPa | 0V | 00:00:00 | 00:00:00 | 00:00:00 | |
| DJALKS | 2026-09-02 11:30:38 | 42.68384 | -83.17249 | 91° | 78km/h | 7449m | 5.7m/s | -18.4°C | 25.6% | 0hPa | 0V | 00:00:00 | 00:00:00 | 00:00:00 | |
| DJALKS | 2026-09-02 11:30:17 | 42.68401 | -83.17857 | 95° | 75km/h | 7340m | 3.6m/s | -17.4°C | 24.2% | 0hPa | 0V | 00:00:00 | 00:00:00 | 00:00:00 | |
| DJALKS | 2026-09-02 11:29:09 | 42.68524 | -83.19672 | 97° | 78km/h | 6983m | 6.2m/s | -14.4°C | 13.5% | 0hPa | 0V | 00:00:00 | 00:00:00 | 00:00:00 | |
| DJALKS | 2026-09-02 11:28:37 | 42.68610 | -83.20461 | 96° | 68km/h | 6831m | 5.2m/s | -13.4°C | 14.0% | 0hPa | 0V | 00:00:00 | 00:00:00 | 00:00:00 | |
| DJALKS | 2026-09-02 11:28:15 | 42.68659 | -83.21000 | 97° | 71km/h | 6728m | 5.4m/s | -12.7°C | 18.5% | 0hPa | 0V | 00:00:00 | 00:00:00 | 00:00:00 | |
| DJALKS | 2026-09-02 11:27:56 | 42.68714 | -83.21471 | 97° | 68km/h | 6625m | 4.2m/s | -11.8°C | 16.2% | 0hPa | 0V | 00:00:00 | 00:00:00 | 00:00:00 | |
| DJALKS | 2026-09-02 11:27:24 | 42.68809 | -83.22198 | 98° | 71km/h | 6460m | 5.4m/s | -10.8°C | 19.4% | 0hPa | 0V | 00:00:00 | 00:00:00 | 00:00:00 | |
| DJALKS | 2026-09-02 11:27:04 | 42.68881 | -83.22655 | 104° | 66km/h | 6359m | 5.0m/s | -10.6°C | 19.4% | 0hPa | 0V | 00:00:00 | 00:00:00 | 00:00:00 | |
| DJALKS | 2026-09-02 11:26:44 | 42.68951 | -83.23078 | 109° | 62km/h | 6252m | 6.5m/s | -10.0°C | 19.8% | 0hPa | 0V | 00:00:00 | 00:00:00 | 00:00:00 | |
| DJALKS | 2026-09-02 11:26:23 | 42.69058 | -83.23530 | 104° | 55km/h | 6153m | 3.5m/s | -9.1°C | 16.7% | 0hPa | 0V | 00:00:00 | 00:00:00 | 00:00:00 | |
| DJALKS | 2026-09-02 11:26:02 | 42.69149 | -83.23956 | 106° | 60km/h | 6031m | 5.6m/s | -8.3°C | 15.6% | 0hPa | 0V | 00:00:00 | 00:00:00 | 00:00:00 | |
| DJALKS | 2026-09-02 11:25:42 | 42.69208 | -83.24410 | 96° | 66km/h | 5933m | 4.6m/s | -7.7°C | 10.1% | 0hPa | 0V | 00:00:00 | 00:00:00 | 00:00:00 | |
| DJALKS | 2026-09-02 11:25:20 | 42.69258 | -83.24889 | 98° | 73km/h | 5820m | 5.2m/s | -7.3°C | 11.9% | 0hPa | 0V | 00:00:00 | 00:00:00 | 00:00:00 | |
| DJALKS | 2026-09-02 11:24:59 | 42.69332 | -83.25383 | 103° | 64km/h | 5711m | 5.3m/s | -6.9°C | 16.1% | 0hPa | 0V | 00:00:00 | 00:00:00 | 00:00:00 | |
| DJALKS | 2026-09-02 11:24:38 | 42.69417 | -83.25797 | 106° | 60km/h | 5617m | 4.0m/s | -6.4°C | 27.0% | 0hPa | 0V | 00:00:00 | 00:00:00 | 00:00:00 | |
| DJALKS | 2026-09-02 11:23:57 | 42.69570 | -83.26634 | 104° | 62km/h | 5426m | 3.9m/s | -4.7°C | 21.8% | 0hPa | 0V | 00:00:00 | 00:00:00 | 00:00:00 | |
| DJALKS | 2026-09-02 11:23:12 | 42.69753 | -83.27565 | 114° | 64km/h | 5214m | 4.5m/s | -2.8°C | 25.4% | 0hPa | 0V | 00:00:00 | 00:00:00 | 00:00:00 | |
| DJALKS | 2026-09-02 11:21:23 | 42.70216 | -83.29759 | 111° | 57km/h | 4690m | 4.1m/s | 0.0°C | 71.9% | 0hPa | 0V | 00:00:00 | 00:00:00 | 00:00:00 | |
| DJALKS | 2026-09-02 11:21:03 | 42.70321 | -83.30162 | 113° | 62km/h | 4584m | 4.9m/s | 1.1°C | 62.4% | 0hPa | 0V | 00:00:00 | 00:00:00 | 00:00:00 | |
| DJALKS | 2026-09-02 11:20:42 | 42.70407 | -83.30556 | 111° | 47km/h | 4479m | 6.8m/s | 2.1°C | 51.2% | 0hPa | 0V | 00:00:00 | 00:00:00 | 00:00:00 | |
| DJALKS | 2026-09-02 11:20:21 | 42.70486 | -83.30988 | 93° | 69km/h | 4369m | 6.0m/s | 3.0°C | 40.4% | 0hPa | 0V | 00:00:00 | 00:00:00 | 00:00:00 | |
| DJALKS | 2026-09-02 11:20:01 | 42.70490 | -83.31423 | 101° | 71km/h | 4260m | 6.5m/s | 3.7°C | 0% | 0hPa | 0V | 00:00:00 | 00:00:00 | 00:00:00 | |
| DJALKS | 2026-09-02 11:18:55 | 42.70379 | -83.32863 | 89° | 62km/h | 3923m | 4.5m/s | 0°C | 0% | 0hPa | 0V | 00:00:00 | 00:00:00 | 00:00:00 | |
| DJALKS | 2026-09-02 11:18:32 | 42.70364 | -83.33358 | 86° | 75km/h | 3826m | 6.8m/s | 0°C | 0% | 0hPa | 0V | 00:00:00 | 00:00:00 | 00:00:00 | |
| DJALKS | 2026-09-02 11:18:10 | 42.70300 | -83.33806 | 70° | 69km/h | 3717m | 4.6m/s | 0°C | 0% | 0hPa | 0V | 00:00:00 | 00:00:00 | 00:00:00 | |
| DJALKS | 2026-09-02 11:17:37 | 42.70140 | -83.34511 | 75° | 77km/h | 3567m | 4.2m/s | 0°C | 0% | 0hPa | 0V | 00:00:00 | 00:00:00 | 00:00:00 | |
| DJALKS | 2026-09-02 11:17:17 | 42.70041 | -83.34858 | 69° | 58km/h | 3471m | 5.1m/s | 0°C | 0% | 0hPa | 0V | 00:00:00 | 00:00:00 | 00:00:00 | |
| DJALKS | 2026-09-02 11:16:54 | 42.69921 | -83.35255 | 63° | 60km/h | 3368m | 4.8m/s | 0°C | 0% | 0hPa | 0V | 00:00:00 | 00:00:00 | 00:00:00 |